Time;durP1;ratioP1;P1;durP2;ratioP2;P2;SDS_P1;SDS_P2;PMS_P1;PMS_P2;Temp;Humidity;BMP_temperature;BMP_pressure;BME280_temperature;BME280_humidity;BME280_pressure;Samples;Min_cycle;Max_cycle;Signal;HPM_P1;HPM_P2
2022/11/11 00:00:08;;;;;;;;;;;;;9.36;98594.60;;;;108956;1268;41164;-60
2022/11/11 00:03:12;;;;;;;;;;;;;9.30;98601.00;;;;108921;1268;41157;-60
2022/11/11 00:06:01;;;;;;;;;;;;;9.30;98598.20;;;;108963;1268;41159;-60
2022/11/11 00:08:49;;;;;;;;;;;;;9.30;98600.00;;;;108947;1268;41619;-60
2022/11/11 00:11:37;;;;;;;;;;;;;9.30;98602.00;;;;108971;1268;41155;-62
2022/11/11 00:14:26;;;;;;;;;;;;;9.30;98599.60;;;;109009;1268;41177;-59
2022/11/11 00:26:37;;;;;;;;;;;;;9.20;98610.80;;;;108940;1267;41173;-60
2022/11/11 00:29:28;;;;;;;;;;;;;9.20;98604.20;;;;108983;1268;41244;-60
2022/11/11 00:32:26;;;;;;;;;;;;;9.16;98603.80;;;;108973;1268;41134;-61
2022/11/11 00:41:27;;;;;;;;;;;;;9.20;98609.00;;;;108986;1268;41157;-61
2022/11/11 00:44:16;;;;;;;;;;;;;9.20;98605.40;;;;109017;1268;41142;-61
2022/11/11 00:53:19;;;;;;;;;;;;;9.30;98596.20;;;;108946;1267;41250;-61
2022/11/11 00:56:13;;;;;;;;;;;;;9.30;98596.80;;;;108988;1264;41151;-61
2022/11/11 00:59:02;;;;;;;;;;;;;9.40;98588.20;;;;109016;1267;41138;-61
2022/11/11 01:01:51;;;;;;;;;;;;;9.40;98589.60;;;;109010;1268;41630;-61
2022/11/11 01:04:40;;;;;;;;;;;;;9.40;98590.20;;;;108985;1268;41174;-60
2022/11/11 01:07:28;;;;;;;;;;;;;9.40;98586.20;;;;109041;1268;41142;-61
2022/11/11 01:10:37;;;;;;;;;;;;;9.40;98587.40;;;;108975;1268;41154;-61
2022/11/11 01:13:31;;;;;;;;;;;;;9.50;98582.40;;;;108956;1268;41570;-61
2022/11/11 01:16:21;;;;;;;;;;;;;9.50;98584.40;;;;108981;1268;41142;-61
2022/11/11 01:19:09;;;;;;;;;;;;;9.50;98582.80;;;;108982;1268;41261;-61
2022/11/11 01:21:57;;;;;;;;;;;;;9.44;98583.80;;;;108973;1267;41154;-61
2022/11/11 01:24:47;;;;;;;;;;;;;9.44;98584.80;;;;109004;1268;41141;-61
2022/11/11 01:27:35;;;;;;;;;;;;;9.40;98588.00;;;;108971;1265;41585;-61
2022/11/11 01:30:23;;;;;;;;;;;;;9.40;98593.20;;;;108977;1268;41153;-61
2022/11/11 01:33:12;;;;;;;;;;;;;9.40;98599.60;;;;108973;1268;41157;-61
2022/11/11 01:36:11;;;;;;;;;;;;;9.40;98599.40;;;;109010;1268;41020;-61
2022/11/11 01:38:59;;;;;;;;;;;;;9.40;98601.20;;;;108976;1268;41345;-61
2022/11/11 01:41:48;;;;;;;;;;;;;9.40;98604.20;;;;108949;1268;41158;-61
2022/11/11 01:44:45;;;;;;;;;;;;;9.40;98602.20;;;;108993;1268;41839;-61
2022/11/11 01:49:17;;;;;;;;;;;;;9.40;98598.60;;;;109014;1268;41618;-60
2022/11/11 01:51:03;;;;;;;;;;;;;9.36;98596.20;;;;109013;1267;41155;-60
2022/11/11 01:53:55;;;;;;;;;;;;;9.30;98596.80;;;;109058;1268;41161;-59
2022/11/11 01:56:45;;;;;;;;;;;;;9.30;98605.80;;;;109043;1267;41156;-60
2022/11/11 01:59:34;;;;;;;;;;;;;9.30;98597.20;;;;108987;1268;41230;-60
2022/11/11 02:02:23;;;;;;;;;;;;;9.20;98590.80;;;;108754;1268;41161;-60
2022/11/11 02:08:32;;;;;;;;;;;;;9.30;98586.60;;;;108986;1268;41168;-60
2022/11/11 02:14:34;;;;;;;;;;;;;9.30;98596.60;;;;109058;1266;41623;-60
2022/11/11 02:14:34;;;;;;;;;;;;;9.30;98598.60;;;;109071;1268;41814;-61
2022/11/11 02:17:23;;;;;;;;;;;;;9.30;98596.40;;;;109086;1267;41159;-61
2022/11/11 02:20:14;;;;;;;;;;;;;9.34;98594.00;;;;109018;1268;41618;-60
2022/11/11 02:23:06;;;;;;;;;;;;;9.34;98598.60;;;;109036;1268;41157;-60
2022/11/11 02:25:56;;;;;;;;;;;;;9.30;98601.40;;;;109040;1268;41172;-61
2022/11/11 02:28:45;;;;;;;;;;;;;9.30;98597.80;;;;109055;1268;42210;-60
2022/11/11 02:31:34;;;;;;;;;;;;;9.30;98601.20;;;;108966;1268;41170;-60
2022/11/11 02:34:30;;;;;;;;;;;;;9.30;98602.60;;;;109023;1267;41135;-60
2022/11/11 02:37:21;;;;;;;;;;;;;9.38;98607.80;;;;109040;1267;41763;-61
2022/11/11 02:40:11;;;;;;;;;;;;;9.40;98609.60;;;;109035;1267;42350;-60
2022/11/11 02:43:01;;;;;;;;;;;;;9.40;98609.40;;;;109085;1268;41622;-60
2022/11/11 02:45:51;;;;;;;;;;;;;9.40;98613.60;;;;109073;1268;41597;-61
2022/11/11 02:48:40;;;;;;;;;;;;;9.40;98612.40;;;;109048;1268;41617;-60
2022/11/11 02:51:29;;;;;;;;;;;;;9.40;98609.80;;;;109027;1267;41170;-62
2022/11/11 02:54:18;;;;;;;;;;;;;9.40;98612.80;;;;109047;1268;42108;-60
2022/11/11 02:57:08;;;;;;;;;;;;;9.40;98615.00;;;;109006;1268;41647;-62
2022/11/11 02:59:58;;;;;;;;;;;;;9.40;98621.40;;;;108992;1268;41231;-62
2022/11/11 03:02:48;;;;;;;;;;;;;9.40;98623.20;;;;109086;1267;41153;-61
2022/11/11 03:05:37;;;;;;;;;;;;;9.30;98623.60;;;;108948;1268;42640;-61
2022/11/11 03:08:26;;;;;;;;;;;;;9.30;98626.20;;;;108923;1268;41895;-61
2022/11/11 03:11:26;;;;;;;;;;;;;9.30;98624.20;;;;108965;1268;41612;-61
2022/11/11 03:14:15;;;;;;;;;;;;;9.30;98621.60;;;;108976;1268;41167;-61
2022/11/11 03:23:21;;;;;;;;;;;;;9.20;98625.20;;;;109061;1265;41750;-61
2022/11/11 03:26:10;;;;;;;;;;;;;9.18;98630.00;;;;109025;1268;41776;-60
2022/11/11 03:28:59;;;;;;;;;;;;;9.18;98628.80;;;;109019;1268;41212;-61
2022/11/11 03:31:49;;;;;;;;;;;;;9.20;98636.60;;;;109069;1267;41446;-61
2022/11/11 03:34:37;;;;;;;;;;;;;9.20;98632.00;;;;109038;1268;41144;-60
2022/11/11 03:40:32;;;;;;;;;;;;;9.30;98632.80;;;;109088;1268;41161;-60
2022/11/11 03:43:22;;;;;;;;;;;;;9.30;98634.80;;;;108996;1268;41176;-61
2022/11/11 03:46:11;;;;;;;;;;;;;9.30;98633.20;;;;109039;1268;41591;-60
2022/11/11 03:48:59;;;;;;;;;;;;;9.30;98631.60;;;;109058;1268;41215;-60
2022/11/11 03:51:48;;;;;;;;;;;;;9.30;98630.40;;;;109029;1266;41156;-61
2022/11/11 03:54:36;;;;;;;;;;;;;9.40;98633.60;;;;109032;1268;41171;-61
2022/11/11 03:57:30;;;;;;;;;;;;;9.40;98637.60;;;;108954;1268;41820;-61
2022/11/11 04:00:20;;;;;;;;;;;;;9.40;98637.80;;;;109053;1268;41351;-60
2022/11/11 04:16:04;;;;;;;;;;;;;9.50;98640.20;;;;109037;1268;41139;-61
2022/11/11 04:21:56;;;;;;;;;;;;;9.60;98639.60;;;;109024;1268;41820;-61
2022/11/11 04:29:27;;;;;;;;;;;;;9.60;98644.40;;;;108991;1268;41131;-61
2022/11/11 04:31:02;;;;;;;;;;;;;9.60;98646.80;;;;109010;1268;41621;-60
2022/11/11 04:33:50;;;;;;;;;;;;;9.60;98649.60;;;;108985;1268;41936;-60
2022/11/11 04:36:38;;;;;;;;;;;;;9.60;98652.80;;;;109026;1268;42033;-60
2022/11/11 04:42:32;;;;;;;;;;;;;9.62;98653.40;;;;108951;1268;41904;-61
2022/11/11 04:45:32;;;;;;;;;;;;;9.70;98652.80;;;;108955;1268;41603;-61
2022/11/11 04:48:20;;;;;;;;;;;;;9.70;98657.20;;;;109016;1267;41145;-61
2022/11/11 04:51:09;;;;;;;;;;;;;9.70;98661.80;;;;108991;1268;41163;-60
2022/11/11 04:53:56;;;;;;;;;;;;;9.70;98666.60;;;;109015;1259;41387;-60
2022/11/11 04:56:47;;;;;;;;;;;;;9.70;98674.00;;;;109007;1268;41241;-61
2022/11/11 04:59:35;;;;;;;;;;;;;9.70;98675.20;;;;109036;1268;41139;-62
2022/11/11 05:08:56;;;;;;;;;;;;;9.80;98681.20;;;;108853;1268;41595;-61
2022/11/11 05:11:43;;;;;;;;;;;;;9.80;98688.40;;;;108967;1268;41339;-61
2022/11/11 05:21:19;;;;;;;;;;;;;9.80;98684.80;;;;108994;1268;41159;-61
2022/11/11 05:21:22;;;;;;;;;;;;;9.80;98686.40;;;;109001;1267;41689;-61
2022/11/11 05:27:15;;;;;;;;;;;;;9.80;98695.40;;;;109063;1268;41148;-61
2022/11/11 05:30:03;;;;;;;;;;;;;9.80;98697.20;;;;109041;1268;41848;-61
2022/11/11 05:32:51;;;;;;;;;;;;;9.80;98697.20;;;;108984;1268;41159;-61
2022/11/11 05:35:38;;;;;;;;;;;;;9.80;98697.80;;;;108967;1265;41626;-60
2022/11/11 05:38:26;;;;;;;;;;;;;9.80;98702.40;;;;108975;1268;41166;-60
2022/11/11 05:41:14;;;;;;;;;;;;;9.80;98703.20;;;;109031;1268;41239;-61
2022/11/11 05:44:01;;;;;;;;;;;;;9.80;98703.80;;;;109072;1266;41307;-61
2022/11/11 05:46:48;;;;;;;;;;;;;9.80;98703.80;;;;109023;1267;41383;-61
2022/11/11 05:49:36;;;;;;;;;;;;;9.80;98709.80;;;;109015;1268;41131;-60
2022/11/11 05:52:24;;;;;;;;;;;;;9.80;98717.00;;;;109052;1268;41182;-60
2022/11/11 05:55:12;;;;;;;;;;;;;9.80;98722.80;;;;109029;1260;41151;-62
2022/11/11 05:57:59;;;;;;;;;;;;;9.90;98732.80;;;;109042;1268;41697;-62
2022/11/11 06:00:47;;;;;;;;;;;;;9.90;98735.60;;;;109039;1268;41158;-61
2022/11/11 06:03:34;;;;;;;;;;;;;9.90;98739.60;;;;109043;1264;41601;-61
2022/11/11 06:06:21;;;;;;;;;;;;;9.90;98743.60;;;;108962;1268;41238;-61
2022/11/11 06:09:09;;;;;;;;;;;;;9.90;98751.20;;;;108936;1268;41170;-60
2022/11/11 06:11:57;;;;;;;;;;;;;9.90;98741.80;;;;109025;1260;41146;-61
2022/11/11 06:14:44;;;;;;;;;;;;;9.90;98743.40;;;;109070;1266;41144;-61
2022/11/11 06:17:32;;;;;;;;;;;;;9.90;98748.80;;;;109028;1268;41144;-61
2022/11/11 06:20:20;;;;;;;;;;;;;9.90;98749.00;;;;109021;1268;41403;-61
2022/11/11 06:23:08;;;;;;;;;;;;;9.90;98751.20;;;;109039;1268;41613;-62
2022/11/11 06:26:13;;;;;;;;;;;;;9.90;98754.00;;;;109031;1268;42209;-61
2022/11/11 06:29:00;;;;;;;;;;;;;9.90;98762.40;;;;109042;1266;41133;-61
2022/11/11 06:31:47;;;;;;;;;;;;;9.90;98770.00;;;;109026;1266;42346;-62
2022/11/11 06:34:35;;;;;;;;;;;;;9.92;98770.60;;;;109029;1267;41138;-61
2022/11/11 06:37:22;;;;;;;;;;;;;10.00;98775.20;;;;109043;1266;41879;-61
2022/11/11 06:40:09;;;;;;;;;;;;;10.02;98781.40;;;;108998;1266;41182;-61
2022/11/11 06:42:57;;;;;;;;;;;;;10.10;98781.00;;;;109079;1266;41771;-61
2022/11/11 06:45:45;;;;;;;;;;;;;10.14;98774.80;;;;108925;1268;41157;-61
2022/11/11 06:48:32;;;;;;;;;;;;;10.20;98783.40;;;;108937;1266;41173;-61
2022/11/11 06:51:19;;;;;;;;;;;;;10.24;98793.20;;;;108945;1268;41153;-61
2022/11/11 06:54:06;;;;;;;;;;;;;10.30;98800.60;;;;109042;1270;41242;-61
2022/11/11 06:56:53;;;;;;;;;;;;;10.30;98807.80;;;;109029;1265;41636;-61
2022/11/11 06:59:41;;;;;;;;;;;;;10.34;98802.40;;;;109032;1268;41344;-61
2022/11/11 07:02:28;;;;;;;;;;;;;10.40;98805.20;;;;109019;1268;42484;-60
2022/11/11 07:05:15;;;;;;;;;;;;;10.40;98810.80;;;;108980;1268;41681;-61
2022/11/11 07:08:03;;;;;;;;;;;;;10.46;98809.80;;;;109023;1268;42212;-61
2022/11/11 07:10:49;;;;;;;;;;;;;10.50;98812.20;;;;109062;1266;41279;-61
2022/11/11 07:13:37;;;;;;;;;;;;;10.60;98817.60;;;;109065;1268;41149;-61
2022/11/11 07:16:24;;;;;;;;;;;;;10.60;98815.20;;;;109032;1268;41180;-62
2022/11/11 07:19:12;;;;;;;;;;;;;10.64;98818.80;;;;109021;1267;41163;-62
2022/11/11 07:21:59;;;;;;;;;;;;;10.70;98828.40;;;;108952;1260;41192;-60
2022/11/11 07:24:46;;;;;;;;;;;;;10.70;98831.00;;;;108964;1268;41162;-61
2022/11/11 07:27:37;;;;;;;;;;;;;10.70;98827.80;;;;108719;1268;317162;-61
2022/11/11 07:30:24;;;;;;;;;;;;;10.70;98832.20;;;;108963;1269;41151;-61
2022/11/11 07:33:11;;;;;;;;;;;;;10.70;98831.80;;;;108958;1270;41235;-61
2022/11/11 07:35:59;;;;;;;;;;;;;10.70;98833.60;;;;108941;1266;41227;-61
2022/11/11 07:38:46;;;;;;;;;;;;;10.78;98833.80;;;;108989;1268;42242;-60
2022/11/11 07:41:33;;;;;;;;;;;;;10.80;98844.60;;;;109019;1268;41171;-61
2022/11/11 07:44:22;;;;;;;;;;;;;10.80;98846.40;;;;109021;1268;42165;-60
2022/11/11 07:47:09;;;;;;;;;;;;;10.80;98847.80;;;;109024;1268;41264;-61
2022/11/11 07:49:57;;;;;;;;;;;;;10.80;98847.00;;;;108979;1268;41234;-60
2022/11/11 07:52:48;;;;;;;;;;;;;10.80;98850.60;;;;108960;1268;41161;-61
2022/11/11 07:55:36;;;;;;;;;;;;;10.80;98847.00;;;;109005;1270;41297;-61
2022/11/11 07:58:23;;;;;;;;;;;;;10.80;98846.60;;;;108960;1268;41143;-61
2022/11/11 08:01:11;;;;;;;;;;;;;10.80;98846.20;;;;108978;1268;41240;-61
2022/11/11 08:03:58;;;;;;;;;;;;;10.80;98847.40;;;;109036;1260;41183;-60
2022/11/11 08:06:45;;;;;;;;;;;;;10.90;98849.80;;;;108975;1268;41301;-61
2022/11/11 08:09:32;;;;;;;;;;;;;10.90;98843.80;;;;109042;1268;41913;-60
2022/11/11 08:15:25;;;;;;;;;;;;;11.10;98846.80;;;;109011;1268;42238;-60
2022/11/11 08:18:12;;;;;;;;;;;;;11.20;98847.40;;;;108920;1266;41236;-62
2022/11/11 08:21:01;;;;;;;;;;;;;11.30;98851.00;;;;109059;1268;41532;-60
2022/11/11 08:23:48;;;;;;;;;;;;;11.30;98853.00;;;;109024;1268;41646;-61
2022/11/11 08:26:55;;;;;;;;;;;;;11.40;98855.00;;;;108978;1266;41146;-61
2022/11/11 08:29:43;;;;;;;;;;;;;11.50;98853.40;;;;108982;1269;41755;-60
2022/11/11 08:32:31;;;;;;;;;;;;;11.50;98855.20;;;;108998;1268;41149;-61
2022/11/11 08:35:18;;;;;;;;;;;;;11.60;98854.80;;;;108955;1267;41175;-61
2022/11/11 08:38:05;;;;;;;;;;;;;11.60;98855.60;;;;108959;1266;41169;-61
2022/11/11 08:40:53;;;;;;;;;;;;;11.60;98858.80;;;;108940;1268;42706;-61
2022/11/11 08:43:41;;;;;;;;;;;;;11.70;98863.20;;;;108989;1268;42200;-61
2022/11/11 08:46:28;;;;;;;;;;;;;11.70;98865.20;;;;108947;1268;41750;-61
2022/11/11 08:49:16;;;;;;;;;;;;;11.80;98873.20;;;;108988;1268;41182;-60
2022/11/11 08:52:03;;;;;;;;;;;;;11.80;98880.20;;;;108996;1268;41543;-61
2022/11/11 08:54:50;;;;;;;;;;;;;11.90;98877.00;;;;109013;1268;41440;-62
2022/11/11 08:57:37;;;;;;;;;;;;;11.90;98873.80;;;;109040;1265;42042;-62
2022/11/11 09:00:25;;;;;;;;;;;;;12.00;98881.20;;;;108964;1268;42696;-60
2022/11/11 09:03:13;;;;;;;;;;;;;12.00;98882.40;;;;109111;1268;41144;-61
2022/11/11 09:06:00;;;;;;;;;;;;;12.00;98884.40;;;;108966;1268;41275;-62
2022/11/11 09:08:48;;;;;;;;;;;;;12.10;98892.40;;;;108931;1268;41191;-62
2022/11/11 09:11:35;;;;;;;;;;;;;12.08;98897.60;;;;109006;1264;41159;-60
2022/11/11 09:14:22;;;;;;;;;;;;;12.00;98897.20;;;;108964;1268;42267;-60
2022/11/11 09:17:10;;;;;;;;;;;;;12.00;98901.80;;;;108944;1265;41672;-60
2022/11/11 09:19:58;;;;;;;;;;;;;12.00;98902.60;;;;109061;1268;41207;-61
2022/11/11 09:22:46;;;;;;;;;;;;;12.00;98901.60;;;;108982;1267;41355;-61
2022/11/11 09:25:34;;;;;;;;;;;;;12.10;98900.20;;;;109060;1267;41740;-61
2022/11/11 09:28:21;;;;;;;;;;;;;12.02;98901.80;;;;109031;1268;41248;-60
2022/11/11 09:31:08;;;;;;;;;;;;;12.02;98906.20;;;;108992;1268;42432;-62
2022/11/11 09:34:15;;;;;;;;;;;;;12.00;98906.80;;;;109007;1268;41153;-61
2022/11/11 09:37:03;;;;;;;;;;;;;12.00;98909.00;;;;109034;1268;41356;-61
2022/11/11 09:39:51;;;;;;;;;;;;;12.04;98904.00;;;;109004;1268;41634;-61
2022/11/11 09:42:39;;;;;;;;;;;;;12.10;98899.00;;;;109013;1268;41173;-60
2022/11/11 09:45:33;;;;;;;;;;;;;12.10;98903.60;;;;108997;1265;41234;-62
2022/11/11 09:48:36;;;;;;;;;;;;;12.10;98907.60;;;;109031;1268;41189;-62
2022/11/11 09:51:25;;;;;;;;;;;;;12.10;98904.20;;;;109021;1268;41714;-62
2022/11/11 09:54:14;;;;;;;;;;;;;12.10;98909.60;;;;108953;1268;41165;-62
2022/11/11 09:57:11;;;;;;;;;;;;;12.20;98910.40;;;;108987;1268;41164;-62
2022/11/11 09:59:59;;;;;;;;;;;;;12.20;98910.80;;;;109016;1268;41472;-63
2022/11/11 10:02:50;;;;;;;;;;;;;12.30;98914.80;;;;108999;1268;41166;-62
2022/11/11 10:05:39;;;;;;;;;;;;;12.30;98917.00;;;;108945;1268;42191;-61
2022/11/11 10:08:29;;;;;;;;;;;;;12.34;98919.40;;;;108983;1268;42080;-61
2022/11/11 10:11:19;;;;;;;;;;;;;12.30;98921.20;;;;108982;1271;41233;-62
2022/11/11 10:14:07;;;;;;;;;;;;;12.30;98919.00;;;;108999;1269;41359;-62
2022/11/11 10:17:12;;;;;;;;;;;;;12.30;98920.80;;;;108947;1271;41805;-61
2022/11/11 10:20:02;;;;;;;;;;;;;12.28;98913.80;;;;109009;1268;41170;-60
2022/11/11 10:23:01;;;;;;;;;;;;;12.24;98910.40;;;;108983;1271;41288;-61
2022/11/11 10:25:48;;;;;;;;;;;;;12.22;98905.60;;;;108773;1271;41162;-61
2022/11/11 10:28:36;;;;;;;;;;;;;12.30;98905.40;;;;108964;1270;41693;-61
2022/11/11 10:31:24;;;;;;;;;;;;;12.30;98904.60;;;;108939;1268;41160;-62
2022/11/11 10:34:12;;;;;;;;;;;;;12.40;98907.40;;;;108926;1268;41171;-61
2022/11/11 10:37:00;;;;;;;;;;;;;12.44;98906.60;;;;109040;1271;41225;-61
2022/11/11 10:39:56;;;;;;;;;;;;;12.50;98908.20;;;;108933;1267;41160;-61
2022/11/11 10:42:44;;;;;;;;;;;;;12.60;98905.80;;;;108957;1266;41182;-62
2022/11/11 10:45:31;;;;;;;;;;;;;12.64;98910.60;;;;109055;1264;41233;-62
2022/11/11 10:48:20;;;;;;;;;;;;;12.70;98905.60;;;;109042;1268;41938;-63
2022/11/11 10:51:07;;;;;;;;;;;;;12.72;98899.00;;;;108986;1268;41233;-61
2022/11/11 10:53:57;;;;;;;;;;;;;12.80;98896.80;;;;108884;1271;41426;-62
2022/11/11 10:56:45;;;;;;;;;;;;;12.80;98893.40;;;;108976;1268;41153;-61
2022/11/11 10:59:51;;;;;;;;;;;;;12.80;98892.20;;;;108973;1271;41247;-62
2022/11/11 11:02:44;;;;;;;;;;;;;12.80;98889.20;;;;108967;1268;42672;-61
2022/11/11 11:05:48;;;;;;;;;;;;;12.80;98886.20;;;;108984;1271;41188;-61
2022/11/11 11:08:37;;;;;;;;;;;;;12.90;98884.00;;;;108904;1271;41158;-61
2022/11/11 11:11:43;;;;;;;;;;;;;12.90;98876.00;;;;108967;1271;41153;-61
2022/11/11 11:14:34;;;;;;;;;;;;;13.00;98876.20;;;;108972;1268;41590;-61
2022/11/11 11:17:42;;;;;;;;;;;;;13.00;98876.80;;;;108895;1271;41150;-62
2022/11/11 11:20:29;;;;;;;;;;;;;13.00;98878.20;;;;108962;1272;41390;-60
2022/11/11 11:23:19;;;;;;;;;;;;;13.00;98871.20;;;;108960;1267;41232;-61
2022/11/11 11:26:08;;;;;;;;;;;;;13.08;98873.80;;;;109032;1269;42022;-61
2022/11/11 11:28:56;;;;;;;;;;;;;13.10;98870.00;;;;108950;1270;41213;-61
2022/11/11 11:31:46;;;;;;;;;;;;;13.10;98869.40;;;;109015;1269;41926;-60
2022/11/11 11:35:00;;;;;;;;;;;;;13.12;98868.00;;;;109017;1272;42454;-60
2022/11/11 11:37:48;;;;;;;;;;;;;13.20;98867.20;;;;108974;1271;41702;-61
2022/11/11 11:40:51;;;;;;;;;;;;;13.20;98866.80;;;;108940;1271;41169;-60
2022/11/11 11:43:41;;;;;;;;;;;;;13.20;98865.60;;;;108938;1266;41196;-61
2022/11/11 11:46:38;;;;;;;;;;;;;13.22;98866.00;;;;108923;1271;41248;-61
2022/11/11 11:49:43;;;;;;;;;;;;;13.30;98860.60;;;;108948;1271;41192;-61
2022/11/11 11:52:39;;;;;;;;;;;;;13.30;98854.20;;;;109037;1271;41244;-60
2022/11/11 11:55:30;;;;;;;;;;;;;13.30;98850.80;;;;108951;1273;41439;-62
2022/11/11 11:58:19;;;;;;;;;;;;;13.30;98848.40;;;;108975;1272;41230;-61
2022/11/11 12:01:17;;;;;;;;;;;;;13.30;98854.20;;;;109060;1272;41701;-61
2022/11/11 12:04:23;;;;;;;;;;;;;13.34;98854.20;;;;108935;1272;41591;-61
2022/11/11 12:07:13;;;;;;;;;;;;;13.40;98856.40;;;;109046;1268;41120;-61
2022/11/11 12:10:09;;;;;;;;;;;;;13.40;98854.80;;;;108888;1268;42094;-61
2022/11/11 12:13:05;;;;;;;;;;;;;13.40;98854.00;;;;108810;1272;41935;-61
2022/11/11 12:15:58;;;;;;;;;;;;;13.40;98853.40;;;;108802;1269;41288;-61
2022/11/11 12:18:54;;;;;;;;;;;;;13.46;98854.60;;;;108841;1273;41743;-61
2022/11/11 12:21:42;;;;;;;;;;;;;13.50;98848.00;;;;108899;1269;41240;-61
2022/11/11 12:24:44;;;;;;;;;;;;;13.50;98844.00;;;;109020;1272;41759;-60
2022/11/11 12:27:43;;;;;;;;;;;;;13.50;98849.20;;;;108967;1272;41189;-60
2022/11/11 12:30:30;;;;;;;;;;;;;13.50;98847.60;;;;108848;1265;41258;-59
2022/11/11 12:33:36;;;;;;;;;;;;;13.40;98855.40;;;;108920;1271;42494;-61
2022/11/11 12:36:36;;;;;;;;;;;;;13.40;98861.40;;;;108937;1271;41232;-60
2022/11/11 12:39:25;;;;;;;;;;;;;13.44;98865.00;;;;109000;1270;41410;-61
2022/11/11 12:42:31;;;;;;;;;;;;;13.40;98872.20;;;;109018;1270;41958;-62
2022/11/11 12:45:31;;;;;;;;;;;;;13.40;98867.80;;;;108943;1267;41160;-63
2022/11/11 12:48:24;;;;;;;;;;;;;13.40;98868.00;;;;108891;1271;41155;-61
2022/11/11 12:51:21;;;;;;;;;;;;;13.40;98868.60;;;;108823;1271;41145;-61
2022/11/11 12:54:14;;;;;;;;;;;;;13.40;98867.60;;;;108878;1273;41633;-61
2022/11/11 12:57:10;;;;;;;;;;;;;13.42;98863.80;;;;108836;1265;41353;-61
2022/11/11 12:59:58;;;;;;;;;;;;;13.62;98852.40;;;;108859;1274;41370;-61
2022/11/11 13:03:03;;;;;;;;;;;;;14.00;98856.20;;;;108943;1272;41145;-61
2022/11/11 13:05:50;;;;;;;;;;;;;14.42;98849.40;;;;108946;1270;41149;-62
2022/11/11 13:08:55;;;;;;;;;;;;;14.80;98852.40;;;;108957;1270;41943;-60
2022/11/11 13:11:55;;;;;;;;;;;;;14.90;98860.00;;;;108989;1271;41232;-61
2022/11/11 13:14:42;;;;;;;;;;;;;14.90;98858.00;;;;108943;1268;41232;-62
2022/11/11 13:17:30;;;;;;;;;;;;;14.82;98861.20;;;;108887;1273;42157;-61
2022/11/11 13:20:28;;;;;;;;;;;;;14.80;98863.20;;;;108956;1272;41161;-61
2022/11/11 13:23:15;;;;;;;;;;;;;14.70;98863.40;;;;108978;1273;41160;-60
2022/11/11 13:26:03;;;;;;;;;;;;;14.60;98857.40;;;;108919;1267;42168;-62
2022/11/11 13:28:52;;;;;;;;;;;;;14.50;98861.60;;;;108911;1271;41771;-61
2022/11/11 13:31:39;;;;;;;;;;;;;14.42;98865.00;;;;108932;1272;41609;-62
2022/11/11 13:34:27;;;;;;;;;;;;;14.40;98864.00;;;;108829;1273;42430;-62
2022/11/11 13:37:29;;;;;;;;;;;;;14.40;98863.60;;;;108896;1273;41627;-61
2022/11/11 13:40:26;;;;;;;;;;;;;14.40;98865.00;;;;108882;1271;41164;-60
2022/11/11 13:43:34;;;;;;;;;;;;;14.32;98869.80;;;;108849;1274;41157;-61
2022/11/11 13:46:26;;;;;;;;;;;;;14.30;98870.20;;;;108901;1267;41230;-61
2022/11/11 13:49:40;;;;;;;;;;;;;14.30;98874.60;;;;108869;1271;41256;-62
2022/11/11 13:52:33;;;;;;;;;;;;;14.20;98873.80;;;;108928;1268;41892;-61
2022/11/11 13:55:23;;;;;;;;;;;;;14.10;98876.40;;;;108801;1266;42667;-61
2022/11/11 13:58:32;;;;;;;;;;;;;14.06;98878.00;;;;108836;1268;41149;-62
2022/11/11 14:01:20;;;;;;;;;;;;;13.98;98876.40;;;;108867;1273;41231;-61
2022/11/11 14:04:07;;;;;;;;;;;;;13.90;98883.40;;;;108812;1274;41588;-61
2022/11/11 14:06:55;;;;;;;;;;;;;13.80;98885.60;;;;108904;1273;41163;-61
2022/11/11 14:09:56;;;;;;;;;;;;;13.80;98879.40;;;;108800;1270;41253;-61
2022/11/11 14:12:44;;;;;;;;;;;;;13.80;98885.40;;;;108885;1273;42033;-62
2022/11/11 14:15:35;;;;;;;;;;;;;13.72;98877.40;;;;108810;1271;41234;-62
2022/11/11 14:18:33;;;;;;;;;;;;;13.70;98881.00;;;;108944;1273;41768;-61
2022/11/11 14:21:38;;;;;;;;;;;;;13.60;98885.40;;;;108934;1274;41633;-61
2022/11/11 14:24:38;;;;;;;;;;;;;13.50;98886.60;;;;108965;1269;41481;-62
2022/11/11 14:27:26;;;;;;;;;;;;;13.40;98888.80;;;;108962;1271;42748;-62
2022/11/11 14:30:33;;;;;;;;;;;;;13.32;98891.80;;;;108933;1268;41697;-62
2022/11/11 14:33:39;;;;;;;;;;;;;13.28;98886.00;;;;108921;1270;41148;-61
2022/11/11 14:36:32;;;;;;;;;;;;;13.20;98883.60;;;;108876;1270;41698;-61
2022/11/11 14:39:31;;;;;;;;;;;;;13.10;98881.60;;;;108932;1273;41766;-61
2022/11/11 14:42:34;;;;;;;;;;;;;13.00;98880.40;;;;108945;1271;41236;-61
2022/11/11 14:45:30;;;;;;;;;;;;;12.90;98880.40;;;;108940;1270;41248;-61
2022/11/11 14:48:56;;;;;;;;;;;;;12.80;98884.40;;;;108957;1267;41935;-61
2022/11/11 14:51:50;;;;;;;;;;;;;12.70;98887.20;;;;108352;1279;41648;-62
2022/11/11 14:54:57;;;;;;;;;;;;;12.60;98891.00;;;;108367;1276;41364;-60
2022/11/11 14:57:48;;;;;;;;;;;;;12.50;98889.60;;;;109057;1268;41276;-60
2022/11/11 15:00:54;;;;;;;;;;;;;12.40;98887.40;;;;108867;1269;41695;-61
2022/11/11 15:03:48;;;;;;;;;;;;;12.34;98880.20;;;;108864;1270;41711;-61
2022/11/11 15:06:42;;;;;;;;;;;;;12.30;98876.80;;;;108799;1271;41245;-62
2022/11/11 15:09:48;;;;;;;;;;;;;12.20;98881.40;;;;108851;1266;41361;-61
2022/11/11 15:12:38;;;;;;;;;;;;;12.16;98877.00;;;;108876;1267;41286;-62
2022/11/11 15:15:40;;;;;;;;;;;;;12.10;98878.00;;;;108941;1269;41601;-61
2022/11/11 15:18:28;;;;;;;;;;;;;12.04;98873.80;;;;108934;1269;41140;-61
2022/11/11 15:21:18;;;;;;;;;;;;;12.00;98879.40;;;;108941;1269;41265;-61
2022/11/11 15:24:17;;;;;;;;;;;;;12.00;98876.80;;;;108965;1269;41166;-61
2022/11/11 15:27:11;;;;;;;;;;;;;11.90;98884.40;;;;108940;1269;41973;-63
2022/11/11 15:30:06;;;;;;;;;;;;;11.80;98897.20;;;;108969;1269;42183;-62
2022/11/11 15:32:55;;;;;;;;;;;;;11.80;98898.00;;;;108974;1269;41159;-61
2022/11/11 15:35:47;;;;;;;;;;;;;11.70;98903.60;;;;108941;1269;41849;-61
2022/11/11 15:38:34;;;;;;;;;;;;;11.70;98909.40;;;;108925;1269;41967;-61
2022/11/11 15:41:23;;;;;;;;;;;;;11.60;98912.80;;;;108858;1269;41231;-61
2022/11/11 15:44:23;;;;;;;;;;;;;11.60;98913.00;;;;108932;1261;41749;-61
2022/11/11 15:47:11;;;;;;;;;;;;;11.50;98909.60;;;;108936;1269;41852;-61
2022/11/11 15:49:58;;;;;;;;;;;;;11.50;98917.80;;;;108958;1269;42087;-62
2022/11/11 15:52:46;;;;;;;;;;;;;11.40;98917.40;;;;108936;1269;41672;-61
2022/11/11 15:55:36;;;;;;;;;;;;;11.40;98921.40;;;;108810;1269;41246;-61
2022/11/11 15:58:24;;;;;;;;;;;;;11.30;98924.20;;;;108960;1266;41225;-61
2022/11/11 16:01:11;;;;;;;;;;;;;11.30;98920.00;;;;108934;1269;41233;-61
2022/11/11 16:03:59;;;;;;;;;;;;;11.20;98921.00;;;;108953;1269;41230;-62
2022/11/11 16:06:46;;;;;;;;;;;;;11.10;98922.80;;;;108966;1269;41709;-62
2022/11/11 16:09:33;;;;;;;;;;;;;11.10;98923.60;;;;108833;1271;42578;-61
2022/11/11 16:12:22;;;;;;;;;;;;;11.02;98922.80;;;;108625;1269;41691;-61
2022/11/11 16:15:09;;;;;;;;;;;;;11.00;98930.60;;;;108823;1267;41241;-61
2022/11/11 16:17:58;;;;;;;;;;;;;10.98;98926.00;;;;108925;1267;41788;-62
2022/11/11 16:21:05;;;;;;;;;;;;;10.90;98923.20;;;;108954;1267;41396;-61
2022/11/11 16:23:52;;;;;;;;;;;;;10.90;98925.00;;;;108958;1269;43103;-61
2022/11/11 16:26:38;;;;;;;;;;;;;10.80;98924.00;;;;108787;1271;41169;-61
2022/11/11 16:29:27;;;;;;;;;;;;;10.80;98928.40;;;;108795;1263;41798;-62
2022/11/11 16:32:23;;;;;;;;;;;;;10.70;98927.20;;;;108874;1269;42302;-61
2022/11/11 16:35:28;;;;;;;;;;;;;10.70;98931.20;;;;108942;1267;41955;-60
2022/11/11 16:38:31;;;;;;;;;;;;;10.70;98931.60;;;;108932;1266;41215;-61
2022/11/11 16:41:28;;;;;;;;;;;;;10.68;98943.00;;;;108974;1269;41751;-62
2022/11/11 16:44:34;;;;;;;;;;;;;10.60;98944.60;;;;108941;1269;41239;-61
2022/11/11 16:47:27;;;;;;;;;;;;;10.50;98947.80;;;;109001;1269;41345;-61
2022/11/11 16:50:24;;;;;;;;;;;;;10.50;98950.60;;;;109002;1269;41242;-60
2022/11/11 16:53:11;;;;;;;;;;;;;10.50;98956.60;;;;108977;1269;41188;-60
2022/11/11 16:55:57;;;;;;;;;;;;;10.42;98953.20;;;;108827;1269;41569;-60
2022/11/11 16:58:52;;;;;;;;;;;;;10.40;98952.40;;;;108602;1271;41321;-60
2022/11/11 17:01:42;;;;;;;;;;;;;10.40;98946.60;;;;108887;1269;41145;-60